Time;durP1;ratioP1;P1;durP2;ratioP2;P2;SDS_P1;SDS_P2;PMS_P1;PMS_P2;Temp;Humidity;BMP_temperature;BMP_pressure;BME280_temperature;BME280_humidity;BME280_pressure;Samples;Min_cycle;Max_cycle;Signal;HPM_P1;HPM_P2
2024/03/30 00:01:46;;;;;;;;;;;;;;;5.85;100.00;99863.06;5070925;28;19920;-66
2024/03/30 00:04:11;;;;;;;;;;;;;;;5.74;100.00;99860.63;5067665;28;19932;-68
2024/03/30 00:06:36;;;;;;;;;;;;;;;5.72;100.00;99857.31;5071420;28;19920;-68
2024/03/30 00:09:04;;;;;;;;;;;;;;;5.68;100.00;99863.91;5064187;28;19924;-68
2024/03/30 00:11:31;;;;;;;;;;;;;;;5.61;100.00;99873.44;5060959;28;19951;-68
2024/03/30 00:13:56;;;;;;;;;;;;;;;5.57;100.00;99856.22;5066630;28;19927;-67
2024/03/30 00:16:22;;;;;;;;;;;;;;;5.47;100.00;99866.84;5061377;28;19929;-68
2024/03/30 00:18:48;;;;;;;;;;;;;;;5.45;100.00;99871.47;5063826;28;19932;-67
2024/03/30 00:21:16;;;;;;;;;;;;;;;5.43;100.00;99870.78;5059741;28;20427;-68
2024/03/30 00:23:41;;;;;;;;;;;;;;;5.40;100.00;99873.72;5066336;28;19925;-68
2024/03/30 00:26:08;;;;;;;;;;;;;;;5.37;100.00;99871.41;5063228;28;19930;-68
2024/03/30 00:28:34;;;;;;;;;;;;;;;5.32;100.00;99880.75;5061227;28;19925;-67
2024/03/30 00:30:59;;;;;;;;;;;;;;;5.29;100.00;99880.06;5060355;28;19932;-67
2024/03/30 00:33:24;;;;;;;;;;;;;;;5.31;100.00;99882.56;5062622;28;19925;-69
2024/03/30 00:35:54;;;;;;;;;;;;;;;5.28;100.00;99894.25;5062502;28;20033;-69
2024/03/30 00:38:19;;;;;;;;;;;;;;;5.24;100.00;99892.06;5067354;28;19951;-68
2024/03/30 00:40:44;;;;;;;;;;;;;;;5.14;100.00;99894.75;5061560;28;19938;-68
2024/03/30 00:43:10;;;;;;;;;;;;;;;5.10;100.00;99896.03;5062605;28;19969;-70
2024/03/30 00:45:36;;;;;;;;;;;;;;;5.00;100.00;99894.44;5060198;28;20026;-67
2024/03/30 00:48:01;;;;;;;;;;;;;;;5.00;100.00;99890.00;5062113;28;19932;-69
2024/03/30 00:50:27;;;;;;;;;;;;;;;4.94;100.00;99912.53;5058067;28;19928;-67
2024/03/30 00:52:52;;;;;;;;;;;;;;;4.89;100.00;99903.38;5061094;28;20383;-68
2024/03/30 00:55:17;;;;;;;;;;;;;;;4.78;100.00;99907.03;5069008;28;19970;-68
2024/03/30 00:57:43;;;;;;;;;;;;;;;4.80;100.00;99896.34;5045424;28;19924;-69
2024/03/30 01:00:10;;;;;;;;;;;;;;;4.83;100.00;99902.16;5063981;28;20319;-68
2024/03/30 01:02:38;;;;;;;;;;;;;;;4.83;100.00;99898.69;5067302;28;19921;-68
2024/03/30 01:05:03;;;;;;;;;;;;;;;4.86;100.00;99906.31;5068862;28;19925;-67
2024/03/30 01:07:29;;;;;;;;;;;;;;;4.93;100.00;99899.47;5057288;28;19966;-67
2024/03/30 01:09:54;;;;;;;;;;;;;;;4.93;100.00;99899.47;5074227;28;19947;-67
2024/03/30 01:12:20;;;;;;;;;;;;;;;4.95;100.00;99908.09;5060778;28;20364;-70
2024/03/30 01:14:46;;;;;;;;;;;;;;;4.93;100.00;99904.75;5067760;28;20458;-68
2024/03/30 01:17:11;;;;;;;;;;;;;;;4.91;100.00;99902.25;5066964;28;19932;-68
2024/03/30 01:19:37;;;;;;;;;;;;;;;4.93;100.00;99910.03;5066041;28;19932;-67
2024/03/30 01:22:02;;;;;;;;;;;;;;;4.95;100.00;99905.44;5063110;28;19936;-67
2024/03/30 01:24:28;;;;;;;;;;;;;;;4.93;100.00;99917.97;5061565;28;20280;-67
2024/03/30 01:26:57;;;;;;;;;;;;;;;4.91;100.00;99914.59;5064005;28;20391;-66
2024/03/30 01:29:25;;;;;;;;;;;;;;;4.96;100.00;99910.56;5065304;28;19928;-68
2024/03/30 01:31:54;;;;;;;;;;;;;;;4.98;100.00;99923.63;5069011;28;19959;-67
2024/03/30 01:34:19;;;;;;;;;;;;;;;4.97;100.00;99911.41;5052835;28;20401;-67
2024/03/30 01:36:45;;;;;;;;;;;;;;;4.92;100.00;99916.28;5080664;28;20027;-69
2024/03/30 01:39:10;;;;;;;;;;;;;;;4.91;100.00;99906.69;5067679;28;19931;-70
2024/03/30 01:41:36;;;;;;;;;;;;;;;4.96;100.00;99917.66;5062266;28;19924;-67
2024/03/30 01:44:01;;;;;;;;;;;;;;;4.95;100.00;99918.63;5062579;28;19963;-67
2024/03/30 01:46:28;;;;;;;;;;;;;;;4.98;100.00;99907.78;5068357;28;20063;-67
2024/03/30 01:48:54;;;;;;;;;;;;;;;4.96;100.00;99925.56;5062003;28;19921;-69
2024/03/30 01:51:19;;;;;;;;;;;;;;;5.00;100.00;99913.75;5065742;28;19968;-68
2024/03/30 01:53:45;;;;;;;;;;;;;;;5.04;100.00;99928.31;5053687;28;20095;-67
2024/03/30 01:56:10;;;;;;;;;;;;;;;5.08;100.00;99926.19;5064806;28;19959;-69
2024/03/30 01:58:36;;;;;;;;;;;;;;;5.09;100.00;99923.41;5063641;28;19947;-67
2024/03/30 02:01:01;;;;;;;;;;;;;;;5.09;100.00;99930.50;5059353;28;19927;-67
2024/03/30 02:03:27;;;;;;;;;;;;;;;5.13;100.00;99929.22;5066971;28;19950;-67
2024/03/30 02:05:53;;;;;;;;;;;;;;;5.11;100.00;99934.66;5054373;28;19924;-70
2024/03/30 02:08:20;;;;;;;;;;;;;;;5.14;100.00;99931.69;5059840;28;19927;-68
2024/03/30 02:10:46;;;;;;;;;;;;;;;5.13;100.00;99937.13;5065045;28;19946;-70
2024/03/30 02:13:11;;;;;;;;;;;;;;;5.12;100.00;99946.84;5062484;28;20014;-68
2024/03/30 02:15:37;;;;;;;;;;;;;;;5.09;100.00;99951.59;5066837;28;20024;-68
2024/03/30 02:18:02;;;;;;;;;;;;;;;5.09;100.00;99946.31;5063774;28;19977;-67
2024/03/30 02:20:28;;;;;;;;;;;;;;;5.00;100.00;99958.59;5057993;28;19978;-70
2024/03/30 02:22:53;;;;;;;;;;;;;;;4.96;100.00;99951.97;5068882;28;20315;-67
2024/03/30 02:25:19;;;;;;;;;;;;;;;4.96;100.00;99962.50;5065839;28;20019;-69
2024/03/30 02:27:45;;;;;;;;;;;;;;;4.94;100.00;99959.19;5064080;28;19944;-73
2024/03/30 02:30:14;;;;;;;;;;;;;;;4.93;100.00;99962.81;5059525;28;19925;-69
2024/03/30 02:32:39;;;;;;;;;;;;;;;4.92;100.00;99961.16;5064549;28;19924;-70
2024/03/30 02:35:04;;;;;;;;;;;;;;;4.91;100.00;99964.72;5063371;28;20309;-67
2024/03/30 02:37:30;;;;;;;;;;;;;;;4.94;100.00;99967.09;5061067;28;19924;-70
2024/03/30 02:39:55;;;;;;;;;;;;;;;4.95;100.00;99980.16;5063911;28;19952;-68
2024/03/30 02:42:20;;;;;;;;;;;;;;;4.92;100.00;99969.06;5068474;28;19975;-67
2024/03/30 02:44:45;;;;;;;;;;;;;;;4.90;100.00;99969.19;5062391;28;19960;-66
2024/03/30 02:47:11;;;;;;;;;;;;;;;4.93;100.00;99983.91;5062593;28;19986;-68
2024/03/30 02:49:36;;;;;;;;;;;;;;;4.97;100.00;99974.72;5062983;28;19925;-71
2024/03/30 02:52:02;;;;;;;;;;;;;;;4.95;100.00;99985.44;5064251;28;20635;-68
2024/03/30 02:54:27;;;;;;;;;;;;;;;4.94;100.00;99972.38;5059541;28;19924;-68
2024/03/30 02:56:52;;;;;;;;;;;;;;;4.94;100.00;99982.94;5062401;28;19924;-67
2024/03/30 02:59:18;;;;;;;;;;;;;;;4.94;100.00;99981.13;5062124;28;20394;-69
2024/03/30 03:01:45;;;;;;;;;;;;;;;4.96;100.00;99988.91;5072415;28;19991;-69
2024/03/30 03:04:10;;;;;;;;;;;;;;;4.97;100.00;99982.66;5061958;28;20006;-69
2024/03/30 03:06:36;;;;;;;;;;;;;;;4.92;100.00;99993.66;5056195;28;19921;-72
2024/03/30 03:09:01;;;;;;;;;;;;;;;4.93;100.00;99999.75;5058942;28;20021;-69
2024/03/30 03:11:26;;;;;;;;;;;;;;;4.90;100.00;99995.56;5065032;28;19955;-67
2024/03/30 03:13:52;;;;;;;;;;;;;;;4.87;100.00;99995.03;5062681;28;19966;-68
2024/03/30 03:16:18;;;;;;;;;;;;;;;4.90;100.00;100005.28;5062178;28;19924;-69
2024/03/30 03:18:43;;;;;;;;;;;;;;;4.91;100.00;100002.50;5058365;28;20311;-68
2024/03/30 03:21:08;;;;;;;;;;;;;;;4.91;100.00;100004.31;5064670;28;19932;-68
2024/03/30 03:23:34;;;;;;;;;;;;;;;4.88;100.00;100007.25;5061553;28;20428;-70
2024/03/30 03:25:59;;;;;;;;;;;;;;;4.80;100.00;100004.50;5062713;28;19924;-71
2024/03/30 03:28:25;;;;;;;;;;;;;;;4.82;100.00;100002.56;5062116;28;20248;-69
2024/03/30 03:30:50;;;;;;;;;;;;;;;4.80;100.00;100004.50;5068056;28;19925;-67
2024/03/30 03:33:15;;;;;;;;;;;;;;;4.85;100.00;100007.53;5062849;28;19920;-68
2024/03/30 03:35:41;;;;;;;;;;;;;;;4.85;100.00;100012.81;5073964;28;19947;-69
2024/03/30 03:38:07;;;;;;;;;;;;;;;4.88;100.00;100012.53;5068122;28;19964;-68
2024/03/30 03:40:33;;;;;;;;;;;;;;;4.91;100.00;100018.34;5054326;28;19925;-72
2024/03/30 03:42:58;;;;;;;;;;;;;;;4.92;100.00;100011.28;5062899;28;19947;-68
2024/03/30 03:45:24;;;;;;;;;;;;;;;4.95;100.00;100013.63;5069126;28;19986;-69
2024/03/30 03:47:49;;;;;;;;;;;;;;;4.94;100.00;100011.97;5062348;28;19925;-67
2024/03/30 03:50:16;;;;;;;;;;;;;;;4.97;100.00;100011.69;5064789;28;19931;-66
2024/03/30 03:52:41;;;;;;;;;;;;;;;4.98;100.00;100019.44;5070296;28;19925;-68
2024/03/30 03:55:07;;;;;;;;;;;;;;;4.96;100.00;100021.41;5067507;28;19947;-68
2024/03/30 03:57:32;;;;;;;;;;;;;;;4.95;100.00;100024.19;5069153;28;20007;-70
2024/03/30 03:59:57;;;;;;;;;;;;;;;4.95;100.00;100029.47;5069510;28;19921;-68
2024/03/30 04:02:23;;;;;;;;;;;;;;;4.97;100.00;100030.16;5074299;28;20432;-70
2024/03/30 04:04:50;;;;;;;;;;;;;;;4.90;100.00;100021.94;5064662;28;20443;-68
2024/03/30 04:07:15;;;;;;;;;;;;;;;4.88;100.00;100028.34;5071369;28;19927;-71
2024/03/30 04:09:40;;;;;;;;;;;;;;;4.90;100.00;100032.50;5079788;28;20006;-68
2024/03/30 04:12:06;;;;;;;;;;;;;;;4.92;100.00;100035.03;5077753;28;19927;-67
2024/03/30 04:14:33;;;;;;;;;;;;;;;4.90;100.00;100032.50;5060378;28;19925;-67
2024/03/30 04:16:58;;;;;;;;;;;;;;;4.88;100.00;100023.91;5067833;28;19976;-69
2024/03/30 04:19:23;;;;;;;;;;;;;;;4.92;100.00;100041.13;5066661;28;19975;-69
2024/03/30 04:21:51;;;;;;;;;;;;;;;4.97;100.00;100030.16;5066616;28;20338;-67
2024/03/30 04:24:17;;;;;;;;;;;;;;;4.99;100.00;100030.84;5062042;28;19920;-70
2024/03/30 04:26:43;;;;;;;;;;;;;;;4.98;100.00;100042.38;5063329;28;20307;-70
2024/03/30 04:29:08;;;;;;;;;;;;;;;4.95;100.00;100034.75;5066726;28;19924;-68
2024/03/30 04:31:34;;;;;;;;;;;;;;;4.95;100.00;100034.75;5064925;28;20384;-69
2024/03/30 04:34:02;;;;;;;;;;;;;;;4.95;100.00;100037.38;5060923;28;20387;-68
2024/03/30 04:36:28;;;;;;;;;;;;;;;4.99;100.00;100036.09;5060812;28;19927;-70
2024/03/30 04:38:53;;;;;;;;;;;;;;;5.02;100.00;100041.09;5057227;28;20375;-69
2024/03/30 04:41:19;;;;;;;;;;;;;;;5.04;100.00;100039.13;5063895;28;20035;-69
2024/03/30 04:43:44;;;;;;;;;;;;;;;5.02;100.00;100049.00;5064256;28;19920;-69
2024/03/30 04:46:09;;;;;;;;;;;;;;;5.03;100.00;100047.19;5063184;28;19974;-69
2024/03/30 04:48:35;;;;;;;;;;;;;;;5.08;100.00;100045.78;5058765;28;20308;-70
2024/03/30 04:51:01;;;;;;;;;;;;;;;5.09;100.00;100046.63;5069920;28;20374;-70
2024/03/30 04:53:33;;;;;;;;;;;;;;;5.11;100.00;100049.94;5063469;28;19928;-67
2024/03/30 04:56:03;;;;;;;;;;;;;;;5.12;100.00;100052.44;5065228;28;20330;-70
2024/03/30 04:58:29;;;;;;;;;;;;;;;5.15;100.00;100046.03;5060631;28;20284;-68
2024/03/30 05:00:59;;;;;;;;;;;;;;;5.19;100.00;100055.31;5060960;28;20410;-69
2024/03/30 05:03:25;;;;;;;;;;;;;;;5.23;100.00;100049.63;5063663;28;19943;-69
2024/03/30 05:05:50;;;;;;;;;;;;;;;5.31;100.00;100048.06;5065777;28;20384;-70
2024/03/30 05:08:15;;;;;;;;;;;;;;;5.29;100.00;100054.31;5060040;28;19924;-70
2024/03/30 05:10:42;;;;;;;;;;;;;;;5.26;100.00;100048.50;5058948;28;19984;-70
2024/03/30 05:13:07;;;;;;;;;;;;;;;5.28;100.00;100047.38;5060019;28;19967;-71
2024/03/30 05:15:37;;;;;;;;;;;;;;;5.34;100.00;100060.97;5062991;28;19928;-70
2024/03/30 05:18:03;;;;;;;;;;;;;;;5.36;100.00;100064.28;5067936;28;20307;-72
2024/03/30 05:23:13;;;;;;;;;;;;;;;5.39;100.00;100058.72;5061064;28;19927;-71
2024/03/30 05:25:41;;;;;;;;;;;;;;;5.35;100.00;100068.75;5066889;28;19925;-71
2024/03/30 05:28:06;;;;;;;;;;;;;;;5.34;100.00;100082.94;5054911;28;19956;-69
2024/03/30 05:30:32;;;;;;;;;;;;;;;5.35;100.00;100081.13;5060135;28;20664;-70
2024/03/30 05:32:57;;;;;;;;;;;;;;;5.29;100.00;100080.72;5054876;28;20021;-70
2024/03/30 05:35:22;;;;;;;;;;;;;;;5.33;100.00;100080.44;5057971;28;19931;-69
2024/03/30 05:37:50;;;;;;;;;;;;;;;5.43;100.00;100091.78;5057376;28;19955;-67
2024/03/30 05:40:15;;;;;;;;;;;;;;;5.45;100.00;100097.75;5057647;28;19956;-70
2024/03/30 05:42:40;;;;;;;;;;;;;;;5.48;100.00;100100.91;5059406;28;19927;-68
2024/03/30 05:45:06;;;;;;;;;;;;;;;5.49;100.00;100102.59;5041924;28;20492;-70
2024/03/30 05:47:31;;;;;;;;;;;;;;;5.51;100.00;100105.09;5064980;28;19928;-67
2024/03/30 05:49:57;;;;;;;;;;;;;;;5.52;100.00;100106.75;5064756;28;19931;-69
2024/03/30 05:52:22;;;;;;;;;;;;;;;5.60;100.00;100105.03;5060650;28;19974;-68
2024/03/30 05:54:47;;;;;;;;;;;;;;;5.65;100.00;100116.97;5057608;28;19921;-69
2024/03/30 05:57:13;;;;;;;;;;;;;;;5.64;100.00;100115.31;5057219;28;19963;-68
2024/03/30 05:59:38;;;;;;;;;;;;;;;5.64;100.00;100121.44;5059879;28;20392;-69
2024/03/30 06:02:04;;;;;;;;;;;;;;;5.70;100.00;100131.41;5067659;28;20403;-68
2024/03/30 06:04:29;;;;;;;;;;;;;;;5.74;100.00;100132.78;5066796;28;20402;-68
2024/03/30 06:06:54;;;;;;;;;;;;;;;5.77;100.00;100132.47;5061874;28;19925;-68
2024/03/30 06:09:20;;;;;;;;;;;;;;;5.77;100.00;100143.03;5068262;28;20406;-69
2024/03/30 06:11:45;;;;;;;;;;;;;;;5.73;100.00;100146.13;5066952;28;20027;-68
2024/03/30 06:14:10;;;;;;;;;;;;;;;5.74;100.00;100148.63;5059734;28;19964;-67
2024/03/30 06:16:36;;;;;;;;;;;;;;;5.72;100.00;100150.59;5065644;28;20510;-68
2024/03/30 06:19:01;;;;;;;;;;;;;;;5.74;100.00;100148.63;5069467;28;19925;-72
2024/03/30 06:21:27;;;;;;;;;;;;;;;5.78;100.00;100144.72;5062420;28;19921;-70
2024/03/30 06:23:53;;;;;;;;;;;;;;;5.79;100.00;100164.06;5061296;28;19920;-70
2024/03/30 06:26:19;;;;;;;;;;;;;;;5.85;100.00;100159.03;5079491;28;19925;-69
2024/03/30 06:28:44;;;;;;;;;;;;;;;5.92;100.00;100155.81;5062714;28;20406;-69
2024/03/30 06:31:10;;;;;;;;;;;;;;;5.98;100.00;100155.22;5058880;28;19928;-69
2024/03/30 06:33:35;;;;;;;;;;;;;;;5.99;100.00;100162.16;5070842;28;19924;-69
2024/03/30 06:36:00;;;;;;;;;;;;;;;6.01;100.00;100168.13;5061108;28;20399;-68
2024/03/30 06:38:26;;;;;;;;;;;;;;;6.04;100.00;100159.91;5065469;28;19924;-70
2024/03/30 06:43:41;;;;;;;;;;;;;;;6.23;100.00;100170.38;5060724;28;19925;-68
2024/03/30 06:46:06;;;;;;;;;;;;;;;6.31;100.00;100170.44;5060183;28;19947;-69
2024/03/30 06:48:32;;;;;;;;;;;;;;;6.40;100.00;100171.38;5063560;28;20442;-69
2024/03/30 06:50:57;;;;;;;;;;;;;;;6.39;100.00;100169.72;5067878;28;19932;-72
2024/03/30 06:53:23;;;;;;;;;;;;;;;6.44;100.00;100178.88;5066064;28;20023;-69
2024/03/30 06:55:48;;;;;;;;;;;;;;;6.48;100.00;100182.88;5053977;28;20374;-68
2024/03/30 06:58:14;;;;;;;;;;;;;;;6.55;100.00;100174.31;5069695;28;19932;-70
2024/03/30 07:00:39;;;;;;;;;;;;;;;6.65;100.00;100180.38;5063758;28;20346;-68
2024/03/30 07:03:05;;;;;;;;;;;;;;;6.69;100.00;100184.41;5066614;28;19932;-68
2024/03/30 07:05:30;;;;;;;;;;;;;;;6.75;100.00;100186.44;5069426;28;19921;-69
2024/03/30 07:07:56;;;;;;;;;;;;;;;6.83;100.00;100191.78;5070024;28;19920;-70
2024/03/30 07:10:21;;;;;;;;;;;;;;;6.86;100.00;100199.41;5066561;28;20024;-72
2024/03/30 07:12:47;;;;;;;;;;;;;;;6.91;100.00;100207.72;5064528;28;20042;-69
2024/03/30 07:15:13;;;;;;;;;;;;;;;6.91;100.00;100207.72;5063757;28;19967;-70
2024/03/30 07:17:38;;;;;;;;;;;;;;;6.84;100.00;100211.97;5066625;28;19967;-68
2024/03/30 07:20:04;;;;;;;;;;;;;;;6.84;100.00;100211.97;5068314;28;20394;-70
2024/03/30 07:22:29;;;;;;;;;;;;;;;6.83;100.00;100212.97;5059596;28;20435;-71
2024/03/30 07:24:58;;;;;;;;;;;;;;;6.83;100.00;100215.59;5063871;28;20404;-71
2024/03/30 07:27:24;;;;;;;;;;;;;;;6.78;100.00;100223.19;5068092;28;20395;-69
2024/03/30 07:29:50;;;;;;;;;;;;;;;6.84;100.00;100227.84;5071219;28;19924;-69
2024/03/30 07:32:16;;;;;;;;;;;;;;;6.99;100.00;100230.81;5068799;28;19921;-69
2024/03/30 07:34:47;;;;;;;;;;;;;;;7.01;100.00;100236.78;5044438;28;20422;-68
2024/03/30 07:37:13;;;;;;;;;;;;;;;7.04;100.00;100234.66;5061424;28;19921;-71
2024/03/30 07:39:42;;;;;;;;;;;;;;;7.08;100.00;100246.59;5063869;28;20308;-71
2024/03/30 07:42:09;;;;;;;;;;;;;;;7.09;100.00;100245.63;5063143;28;19921;-69
2024/03/30 07:44:35;;;;;;;;;;;;;;;7.15;100.00;100246.81;5060747;28;20380;-70
2024/03/30 07:47:00;;;;;;;;;;;;;;;7.07;100.00;100255.53;5066693;28;19924;-70
2024/03/30 07:49:26;;;;;;;;;;;;;;;6.89;100.00;100252.06;5061227;28;20346;-72
2024/03/30 07:51:51;;;;;;;;;;;;;;;6.81;100.00;100257.28;5057691;28;20011;-69
2024/03/30 07:54:17;;;;;;;;;;;;;;;6.80;100.00;100264.38;5067204;28;19943;-69
2024/03/30 07:56:42;;;;;;;;;;;;;;;6.72;100.00;100266.13;5064450;28;19964;-70
2024/03/30 07:59:07;;;;;;;;;;;;;;;6.75;100.00;100271.13;5077701;28;20384;-69
2024/03/30 08:01:33;;;;;;;;;;;;;;;6.78;100.00;100268.16;5060732;28;20418;-72
2024/03/30 08:03:59;;;;;;;;;;;;;;;6.87;100.00;100267.25;5061369;28;19928;-66
2024/03/30 08:06:24;;;;;;;;;;;;;;;6.99;100.00;100279.31;5071945;28;19927;-71
2024/03/30 08:08:50;;;;;;;;;;;;;;;7.21;100.00;100269.22;5056269;28;20019;-71
2024/03/30 08:11:15;;;;;;;;;;;;;;;7.26;100.00;100264.31;5066407;28;20276;-70
2024/03/30 08:13:41;;;;;;;;;;;;;;;7.44;100.00;100265.94;5061003;28;20073;-73
2024/03/30 08:16:09;;;;;;;;;;;;;;;7.68;100.00;100259.13;5061073;28;19924;-71
2024/03/30 08:18:34;;;;;;;;;;;;;;;7.87;100.00;100263.41;5050479;28;19925;-68
2024/03/30 08:21:03;;;;;;;;;;;;;;;7.97;100.00;100259.63;5068334;28;19928;-68
2024/03/30 08:23:29;;;;;;;;;;;;;;;8.05;100.00;100264.97;5064458;28;19951;-69
2024/03/30 08:25:54;;;;;;;;;;;;;;;8.07;100.00;100267.47;5061602;28;19924;-70
2024/03/30 08:28:19;;;;;;;;;;;;;;;8.19;100.00;100265.38;5055958;28;19932;-69
2024/03/30 08:30:45;;;;;;;;;;;;;;;8.30;100.00;100273.03;5070067;28;19925;-69
2024/03/30 08:33:10;;;;;;;;;;;;;;;8.46;100.00;100267.84;5065717;28;20367;-74
2024/03/30 08:35:35;;;;;;;;;;;;;;;8.55;100.00;100285.44;5059919;28;20318;-71
2024/03/30 08:38:01;;;;;;;;;;;;;;;8.55;100.00;100284.63;5063787;28;20379;-73
2024/03/30 08:40:26;;;;;;;;;;;;;;;8.72;100.00;100273.06;5057371;28;19978;-70
2024/03/30 08:42:51;;;;;;;;;;;;;;;8.69;100.00;100284.00;5061328;28;20449;-73
2024/03/30 08:45:17;;;;;;;;;;;;;;;8.58;100.00;100292.25;5055982;28;19955;-70
2024/03/30 08:47:43;;;;;;;;;;;;;;;8.57;100.00;100294.09;5064267;28;20033;-69
2024/03/30 08:50:08;;;;;;;;;;;;;;;8.66;100.00;100301.06;5060809;28;19970;-69
2024/03/30 08:52:33;;;;;;;;;;;;;;;8.65;100.00;100295.91;5064228;28;19924;-70
2024/03/30 08:54:59;;;;;;;;;;;;;;;8.87;100.00;100305.09;5068388;28;19971;-71
2024/03/30 08:57:24;;;;;;;;;;;;;;;8.78;100.00;100301.63;5061091;28;19921;-71
2024/03/30 08:59:51;;;;;;;;;;;;;;;8.95;100.00;100308.59;5062548;28;19921;-71
2024/03/30 09:02:18;;;;;;;;;;;;;;;8.87;100.00;100295.31;5056168;28;20341;-70
2024/03/30 09:04:43;;;;;;;;;;;;;;;8.73;100.00;100319.03;5058779;28;19928;-70
2024/03/30 09:07:09;;;;;;;;;;;;;;;8.84;100.00;100308.09;5060601;28;20043;-72
2024/03/30 09:09:34;;;;;;;;;;;;;;;8.93;100.00;100313.25;5062423;28;20398;-70
2024/03/30 09:11:59;;;;;;;;;;;;;;;8.87;100.00;100311.25;5060295;28;19925;-70
2024/03/30 09:14:25;;;;;;;;;;;;;;;8.87;100.00;100310.44;5062157;28;20483;-70
2024/03/30 09:16:50;;;;;;;;;;;;;;;9.06;100.00;100319.94;5063097;28;20422;-70
2024/03/30 09:19:15;;;;;;;;;;;;;;;9.20;100.00;100316.63;5066052;28;19924;-68
2024/03/30 09:21:41;;;;;;;;;;;;;;;9.13;100.00;100320.94;5058563;28;20358;-69
2024/03/30 09:24:06;;;;;;;;;;;;;;;9.23;100.00;100324.25;5061007;28;19924;-71
2024/03/30 09:26:32;;;;;;;;;;;;;;;9.08;100.00;100328.56;5044365;28;19924;-71
2024/03/30 09:28:57;;;;;;;;;;;;;;;9.17;100.00;100338.22;5074315;28;20840;-70
2024/03/30 09:31:23;;;;;;;;;;;;;;;9.27;100.00;100333.59;5066330;28;20487;-70
2024/03/30 09:33:48;;;;;;;;;;;;;;;9.28;98.86;100335.25;5047140;28;20423;-70
2024/03/30 09:36:17;;;;;;;;;;;;;;;9.19;98.54;100331.72;5061838;28;20026;-69
2024/03/30 09:38:42;;;;;;;;;;;;;;;9.26;99.77;100337.25;5064622;28;19924;-70
2024/03/30 09:41:10;;;;;;;;;;;;;;;9.17;98.95;100335.56;5064719;28;19931;-70
2024/03/30 09:43:35;;;;;;;;;;;;;;;9.37;99.64;100331.59;5063166;28;20296;-70
2024/03/30 09:46:01;;;;;;;;;;;;;;;9.68;99.19;100330.94;5060609;28;19924;-73
2024/03/30 09:48:31;;;;;;;;;;;;;;;9.81;98.00;100339.22;5067630;28;19931;-72
2024/03/30 09:50:57;;;;;;;;;;;;;;;9.98;97.52;100343.53;5070877;28;19920;-70
2024/03/30 09:53:24;;;;;;;;;;;;;;;9.89;95.64;100341.88;5069274;28;20388;-72
2024/03/30 09:55:50;;;;;;;;;;;;;;;9.77;96.63;100346.69;5061361;28;19985;-71
2024/03/30 09:58:16;;;;;;;;;;;;;;;9.63;98.03;100324.28;5063573;28;20346;-72
2024/03/30 10:00:41;;;;;;;;;;;;;;;9.59;96.19;100359.34;5053687;28;19921;-71
2024/03/30 10:03:06;;;;;;;;;;;;;;;9.43;97.79;100354.84;5056561;28;19948;-69
2024/03/30 10:05:35;;;;;;;;;;;;;;;9.50;98.57;100355.84;5060826;28;19946;-69
2024/03/30 10:08:02;;;;;;;;;;;;;;;9.56;98.75;100355.19;5067210;28;19932;-69
2024/03/30 10:10:28;;;;;;;;;;;;;;;9.59;98.37;100359.34;5063258;28;19969;-69
2024/03/30 10:12:59;;;;;;;;;;;;;;;9.47;97.77;100356.19;5067725;28;19971;-71
2024/03/30 10:15:37;;;;;;;;;;;;;;;9.20;99.06;100329.91;5068092;28;19935;-71
2024/03/30 10:18:03;;;;;;;;;;;;;;;9.24;99.27;100363.13;5069939;28;19921;-71
2024/03/30 10:20:29;;;;;;;;;;;;;;;9.19;100.00;100379.56;5068116;28;19931;-70
2024/03/30 10:22:54;;;;;;;;;;;;;;;9.27;100.00;100376.09;5058569;28;19925;-70
2024/03/30 10:25:20;;;;;;;;;;;;;;;9.36;98.65;100382.25;5064959;28;19932;-71
2024/03/30 10:27:46;;;;;;;;;;;;;;;9.40;97.98;100381.75;5055922;28;19924;-70
2024/03/30 10:30:11;;;;;;;;;;;;;;;9.19;97.75;100384.03;5065499;28;19924;-71
2024/03/30 10:32:38;;;;;;;;;;;;;;;9.11;98.34;100386.69;5075423;28;19924;-70
2024/03/30 10:35:07;;;;;;;;;;;;;;;9.08;98.88;100389.66;5063506;28;20023;-70
2024/03/30 10:37:34;;;;;;;;;;;;;;;9.14;99.01;100405.78;5071058;28;19924;-69
2024/03/30 10:40:03;;;;;;;;;;;;;;;9.03;97.51;100405.25;5052044;28;19966;-72
2024/03/30 10:42:28;;;;;;;;;;;;;;;8.99;98.95;100397.63;5071929;28;19924;-72
2024/03/30 10:44:55;;;;;;;;;;;;;;;9.02;99.20;100403.59;5077149;28;19928;-71
2024/03/30 10:47:20;;;;;;;;;;;;;;;9.03;97.11;100399.94;5065944;28;19959;-71
2024/03/30 10:49:45;;;;;;;;;;;;;;;8.94;96.11;100407.03;5058564;28;19999;-69
2024/03/30 10:52:14;;;;;;;;;;;;;;;8.84;96.59;100406.34;5070312;28;20340;-70
2024/03/30 10:54:40;;;;;;;;;;;;;;;8.84;96.96;100401.88;5070364;28;19943;-70
2024/03/30 10:57:05;;;;;;;;;;;;;;;8.86;96.73;100397.22;5068745;28;19942;-69
2024/03/30 10:59:40;;;;;;;;;;;;;;;8.85;96.62;100408.00;5067826;28;20455;-70
2024/03/30 11:02:13;;;;;;;;;;;;;;;8.89;96.43;100399.56;5068849;28;19939;-70
2024/03/30 11:04:39;;;;;;;;;;;;;;;9.10;96.87;100403.63;5071241;28;19924;-71
2024/03/30 11:07:04;;;;;;;;;;;;;;;9.25;94.13;100404.63;5071766;28;20024;-71
2024/03/30 11:09:31;;;;;;;;;;;;;;;9.03;93.52;100407.91;5070973;28;19970;-72
2024/03/30 11:11:57;;;;;;;;;;;;;;;9.03;94.10;100410.56;5062674;28;19925;-71
2024/03/30 11:14:23;;;;;;;;;;;;;;;9.16;94.44;100411.75;5061841;28;19931;-72
2024/03/30 11:16:53;;;;;;;;;;;;;;;9.18;93.85;100419.56;5061379;28;19974;-71
2024/03/30 11:19:27;;;;;;;;;;;;;;;9.07;94.25;100411.91;5068385;28;19947;-73
2024/03/30 11:21:59;;;;;;;;;;;;;;;9.03;94.36;100410.56;5057023;28;19924;-71
2024/03/30 11:24:25;;;;;;;;;;;;;;;8.95;94.42;100420.16;5062539;28;19958;-70
2024/03/30 11:27:00;;;;;;;;;;;;;;;8.92;94.58;100415.16;5062599;28;19925;-71
2024/03/30 11:29:26;;;;;;;;;;;;;;;8.99;95.02;100410.06;5070875;28;19936;-70
2024/03/30 11:31:59;;;;;;;;;;;;;;;8.98;94.05;100411.91;5071947;28;19920;-71
2024/03/30 11:34:28;;;;;;;;;;;;;;;8.78;95.01;100421.09;5090837;28;19928;-70
2024/03/30 11:37:12;;;;;;;;;;;;;;;8.70;94.49;100421.06;5071591;28;19920;-69
2024/03/30 11:39:43;;;;;;;;;;;;;;;8.69;95.22;100414.09;5070804;28;20284;-71
2024/03/30 11:42:32;;;;;;;;;;;;;;;8.74;95.83;100422.41;5071905;28;20407;-69
2024/03/30 11:44:58;;;;;;;;;;;;;;;8.81;96.00;100418.13;5041919;28;20354;-70
2024/03/30 11:47:26;;;;;;;;;;;;;;;8.78;96.40;100423.75;5070409;28;19920;-71
2024/03/30 11:49:51;;;;;;;;;;;;;;;8.79;95.09;100419.28;5071324;28;19955;-71
2024/03/30 11:52:17;;;;;;;;;;;;;;;8.83;95.29;100424.09;5070465;28;19920;-74
2024/03/30 11:54:46;;;;;;;;;;;;;;;8.88;95.77;100419.13;5070911;28;19924;-70
2024/03/30 11:57:12;;;;;;;;;;;;;;;8.89;95.71;100420.81;5070233;28;19920;-69
2024/03/30 11:59:38;;;;;;;;;;;;;;;8.88;95.23;100413.81;5071696;28;20017;-70
2024/03/30 12:02:07;;;;;;;;;;;;;;;9.03;96.54;100421.19;5071200;28;19968;-69
2024/03/30 12:04:36;;;;;;;;;;;;;;;9.16;96.00;100426.88;5072105;28;19966;-68
2024/03/30 12:07:01;;;;;;;;;;;;;;;9.22;94.84;100421.75;5071966;28;20368;-68
2024/03/30 12:09:28;;;;;;;;;;;;;;;9.11;94.64;100421.22;5071982;28;19926;-69
2024/03/30 12:12:09;;;;;;;;;;;;;;;9.12;94.85;100420.22;5070621;28;19931;-70
2024/03/30 12:14:44;;;;;;;;;;;;;;;9.19;95.23;100423.88;5073017;28;19927;-70
2024/03/30 12:17:09;;;;;;;;;;;;;;;9.27;94.65;100429.25;5072575;28;19921;-75
2024/03/30 12:19:34;;;;;;;;;;;;;;;9.24;94.66;100427.72;5072460;28;20007;-70
2024/03/30 12:22:00;;;;;;;;;;;;;;;9.28;95.17;100428.25;5071986;28;19928;-72
2024/03/30 12:24:26;;;;;;;;;;;;;;;9.42;94.47;100427.59;5070646;28;19920;-72
2024/03/30 12:26:55;;;;;;;;;;;;;;;9.59;93.55;100437.28;5070561;28;20030;-71
2024/03/30 12:29:20;;;;;;;;;;;;;;;9.78;92.80;100435.28;5071490;28;20421;-71
2024/03/30 12:31:46;;;;;;;;;;;;;;;9.74;91.82;100434.78;5070115;28;19928;-73
2024/03/30 12:34:11;;;;;;;;;;;;;;;9.65;91.89;100454.41;5071956;28;19952;-68
2024/03/30 12:36:36;;;;;;;;;;;;;;;9.50;92.92;100451.53;5072011;28;19927;-70
2024/03/30 12:39:03;;;;;;;;;;;;;;;9.55;93.27;100453.72;5072125;28;20295;-71
2024/03/30 12:41:29;;;;;;;;;;;;;;;9.60;93.51;100446.09;5072042;28;20031;-69